sensor_id;sensor_type;location;lat;lon;timestamp;pressure;altitude;pressure_sealevel;temperature;humidity
32330;BME280;18807;52.434;13.238;2023-04-04T00:02:36;102657.91;;;1.52;83.98
32330;BME280;18807;52.434;13.238;2023-04-04T00:10:11;102653.66;;;1.42;84.33
32330;BME280;18807;52.434;13.238;2023-04-04T00:17:45;102653.16;;;1.36;84.53
32330;BME280;18807;52.434;13.238;2023-04-04T00:25:20;102654.84;;;1.36;84.31
32330;BME280;18807;52.434;13.238;2023-04-04T00:32:54;102648.53;;;1.34;84.43
32330;BME280;18807;52.434;13.238;2023-04-04T00:40:31;102657.91;;;1.30;84.77
32330;BME280;18807;52.434;13.238;2023-04-04T00:48:05;102656.84;;;1.28;85.41
32330;BME280;18807;52.434;13.238;2023-04-04T00:55:41;102653.47;;;1.19;85.33
32330;BME280;18807;52.434;13.238;2023-04-04T01:03:15;102645.06;;;1.13;86.29
32330;BME280;18807;52.434;13.238;2023-04-04T01:10:50;102639.28;;;1.07;86.95
32330;BME280;18807;52.434;13.238;2023-04-04T01:18:25;102639.03;;;1.04;87.16
32330;BME280;18807;52.434;13.238;2023-04-04T01:26:04;102639.59;;;1.00;88.45
32330;BME280;18807;52.434;13.238;2023-04-04T01:33:42;102634.88;;;0.96;88.62
32330;BME280;18807;52.434;13.238;2023-04-04T01:41:19;102631.75;;;0.90;89.36
32330;BME280;18807;52.434;13.238;2023-04-04T01:48:53;102618.00;;;0.73;90.37
32330;BME280;18807;52.434;13.238;2023-04-04T01:56:28;102620.63;;;0.63;91.81
32330;BME280;18807;52.434;13.238;2023-04-04T02:04:02;102611.94;;;0.54;92.89
32330;BME280;18807;52.434;13.238;2023-04-04T02:11:38;102609.34;;;0.44;94.06
32330;BME280;18807;52.434;13.238;2023-04-04T02:19:12;102603.44;;;0.36;95.78
32330;BME280;18807;52.434;13.238;2023-04-04T02:26:48;102608.69;;;0.36;96.57
32330;BME280;18807;52.434;13.238;2023-04-04T02:34:22;102607.66;;;0.24;96.91
32330;BME280;18807;52.434;13.238;2023-04-04T02:41:57;102594.66;;;0.16;99.11
32330;BME280;18807;52.434;13.238;2023-04-04T02:49:31;102585.63;;;0.22;99.97
32330;BME280;18807;52.434;13.238;2023-04-04T02:57:24;102579.69;;;0.25;99.32
32330;BME280;18807;52.434;13.238;2023-04-04T03:05:16;102572.59;;;0.14;99.26
32330;BME280;18807;52.434;13.238;2023-04-04T03:12:51;102569.84;;;0.02;100.00
32330;BME280;18807;52.434;13.238;2023-04-04T03:20:25;102566.19;;;0.00;100.00
32330;BME280;18807;52.434;13.238;2023-04-04T03:28:08;102559.75;;;-0.14;100.00
32330;BME280;18807;52.434;13.238;2023-04-04T03:35:42;102542.81;;;-0.27;100.00
32330;BME280;18807;52.434;13.238;2023-04-04T03:43:18;102545.19;;;-0.30;100.00
32330;BME280;18807;52.434;13.238;2023-04-04T03:50:52;102550.03;;;-0.35;100.00
32330;BME280;18807;52.434;13.238;2023-04-04T03:58:28;102535.19;;;-0.44;100.00
32330;BME280;18807;52.434;13.238;2023-04-04T04:06:02;102519.69;;;-0.51;100.00
32330;BME280;18807;52.434;13.238;2023-04-04T04:13:37;102526.13;;;-0.48;100.00
32330;BME280;18807;52.434;13.238;2023-04-04T04:21:11;102533.88;;;-0.49;100.00
32330;BME280;18807;52.434;13.238;2023-04-04T04:28:46;102531.66;;;-0.45;100.00
32330;BME280;18807;52.434;13.238;2023-04-04T04:36:21;102536.25;;;-0.42;100.00
32330;BME280;18807;52.434;13.238;2023-04-04T04:43:57;102539.53;;;-0.45;100.00
32330;BME280;18807;52.434;13.238;2023-04-04T04:51:31;102540.56;;;-0.43;100.00
32330;BME280;18807;52.434;13.238;2023-04-04T04:59:07;102548.81;;;-0.48;100.00
32330;BME280;18807;52.434;13.238;2023-04-04T05:07:00;102550.38;;;-0.60;100.00
32330;BME280;18807;52.434;13.238;2023-04-04T05:14:36;102555.63;;;-0.60;100.00
32330;BME280;18807;52.434;13.238;2023-04-04T05:22:10;102564.28;;;-0.61;100.00
32330;BME280;18807;52.434;13.238;2023-04-04T05:29:45;102571.38;;;-0.60;100.00
32330;BME280;18807;52.434;13.238;2023-04-04T05:37:20;102566.25;;;-0.59;100.00
32330;BME280;18807;52.434;13.238;2023-04-04T05:44:55;102564.03;;;-0.44;100.00
32330;BME280;18807;52.434;13.238;2023-04-04T05:52:29;102571.28;;;-0.32;100.00
32330;BME280;18807;52.434;13.238;2023-04-04T06:00:06;102571.56;;;-0.29;100.00
32330;BME280;18807;52.434;13.238;2023-04-04T06:07:41;102578.00;;;-0.15;100.00
32330;BME280;18807;52.434;13.238;2023-04-04T06:15:17;102582.84;;;0.00;100.00
32330;BME280;18807;52.434;13.238;2023-04-04T06:22:50;102577.22;;;0.16;100.00
32330;BME280;18807;52.434;13.238;2023-04-04T06:30:27;102586.38;;;0.31;100.00
32330;BME280;18807;52.434;13.238;2023-04-04T06:38:00;102586.75;;;0.46;100.00
32330;BME280;18807;52.434;13.238;2023-04-04T06:45:37;102580.53;;;0.65;100.00
32330;BME280;18807;52.434;13.238;2023-04-04T06:53:28;102581.66;;;0.79;100.00
32330;BME280;18807;52.434;13.238;2023-04-04T07:01:04;102577.38;;;1.01;98.73
32330;BME280;18807;52.434;13.238;2023-04-04T07:08:39;102566.13;;;1.13;94.51
32330;BME280;18807;52.434;13.238;2023-04-04T07:16:15;102567.41;;;1.40;92.10
32330;BME280;18807;52.434;13.238;2023-04-04T07:23:49;102563.41;;;1.88;89.50
32330;BME280;18807;52.434;13.238;2023-04-04T07:31:25;102561.25;;;1.94;88.44
32330;BME280;18807;52.434;13.238;2023-04-04T07:38:59;102564.38;;;2.00;86.49
32330;BME280;18807;52.434;13.238;2023-04-04T07:46:34;102552.03;;;2.11;83.33
32330;BME280;18807;52.434;13.238;2023-04-04T07:54:09;102540.56;;;2.33;82.04
32330;BME280;18807;52.434;13.238;2023-04-04T08:02:02;102545.75;;;2.78;76.53
32330;BME280;18807;52.434;13.238;2023-04-04T08:09:36;102536.44;;;2.94;71.01
32330;BME280;18807;52.434;13.238;2023-04-04T08:17:12;102536.50;;;4.17;70.51
32330;BME280;18807;52.434;13.238;2023-04-04T08:24:50;102538.16;;;3.90;68.36
32330;BME280;18807;52.434;13.238;2023-04-04T08:32:25;102524.53;;;5.13;63.48
32330;BME280;18807;52.434;13.238;2023-04-04T08:40:00;102537.00;;;5.01;61.01
32330;BME280;18807;52.434;13.238;2023-04-04T08:47:36;102530.75;;;5.14;63.83
32330;BME280;18807;52.434;13.238;2023-04-04T08:55:11;102514.69;;;5.93;61.12
32330;BME280;18807;52.434;13.238;2023-04-04T09:02:54;102512.38;;;5.57;54.80
32330;BME280;18807;52.434;13.238;2023-04-04T09:10:32;102510.94;;;4.55;56.88
32330;BME280;18807;52.434;13.238;2023-04-04T09:18:08;102518.78;;;4.54;56.67
32330;BME280;18807;52.434;13.238;2023-04-04T09:25:47;102501.97;;;4.53;58.29
32330;BME280;18807;52.434;13.238;2023-04-04T09:33:25;102497.22;;;5.82;54.06
32330;BME280;18807;52.434;13.238;2023-04-04T09:40:59;102504.25;;;5.14;54.27
32330;BME280;18807;52.434;13.238;2023-04-04T09:48:35;102501.56;;;5.27;55.14
32330;BME280;18807;52.434;13.238;2023-04-04T09:56:10;102496.25;;;5.27;55.14
32330;BME280;18807;52.434;13.238;2023-04-04T10:03:47;102499.81;;;5.00;54.77
32330;BME280;18807;52.434;13.238;2023-04-04T10:11:28;102495.13;;;4.83;55.41
32330;BME280;18807;52.434;13.238;2023-04-04T10:19:05;102494.75;;;4.64;55.73
32330;BME280;18807;52.434;13.238;2023-04-04T10:26:40;102488.34;;;4.60;56.43
32330;BME280;18807;52.434;13.238;2023-04-04T10:34:19;102482.97;;;5.12;56.25
32330;BME280;18807;52.434;13.238;2023-04-04T10:41:55;102470.59;;;5.53;54.58
32330;BME280;18807;52.434;13.238;2023-04-04T10:49:32;102469.13;;;5.03;52.13
32330;BME280;18807;52.434;13.238;2023-04-04T10:57:06;102463.75;;;5.02;52.72
32330;BME280;18807;52.434;13.238;2023-04-04T11:04:45;102451.56;;;4.91;52.42
32330;BME280;18807;52.434;13.238;2023-04-04T11:12:30;102439.06;;;5.16;52.73
32330;BME280;18807;52.434;13.238;2023-04-04T11:20:08;102432.09;;;5.31;51.85
32330;BME280;18807;52.434;13.238;2023-04-04T11:27:44;102428.03;;;5.23;50.01
32330;BME280;18807;52.434;13.238;2023-04-04T11:35:20;102423.22;;;5.30;50.22
32330;BME280;18807;52.434;13.238;2023-04-04T11:42:54;102416.13;;;5.58;51.23
32330;BME280;18807;52.434;13.238;2023-04-04T11:50:37;102392.97;;;5.83;48.47
32330;BME280;18807;52.434;13.238;2023-04-04T11:58:14;102391.31;;;5.71;47.65
32330;BME280;18807;52.434;13.238;2023-04-04T12:05:50;102381.97;;;5.63;48.15
32330;BME280;18807;52.434;13.238;2023-04-04T12:13:29;102377.41;;;5.60;46.49
32330;BME280;18807;52.434;13.238;2023-04-04T12:21:05;102369.66;;;5.92;47.69
32330;BME280;18807;52.434;13.238;2023-04-04T12:28:40;102360.97;;;5.95;48.17
32330;BME280;18807;52.434;13.238;2023-04-04T12:36:18;102355.13;;;6.00;48.07
32330;BME280;18807;52.434;13.238;2023-04-04T12:44:01;102342.38;;;6.24;45.88
32330;BME280;18807;52.434;13.238;2023-04-04T12:51:37;102341.25;;;6.21;46.81
32330;BME280;18807;52.434;13.238;2023-04-04T12:59:11;102323.97;;;6.27;45.95
32330;BME280;18807;52.434;13.238;2023-04-04T13:06:46;102317.25;;;6.34;45.62
32330;BME280;18807;52.434;13.238;2023-04-04T13:14:20;102303.72;;;6.60;45.60
32330;BME280;18807;52.434;13.238;2023-04-04T13:21:55;102298.91;;;6.53;44.50
32330;BME280;18807;52.434;13.238;2023-04-04T13:29:29;102286.09;;;6.62;45.64
32330;BME280;18807;52.434;13.238;2023-04-04T13:37:05;102279.66;;;6.73;43.71
32330;BME280;18807;52.434;13.238;2023-04-04T13:44:39;102269.19;;;6.76;43.41
32330;BME280;18807;52.434;13.238;2023-04-04T13:52:14;102263.03;;;6.77;43.87
32330;BME280;18807;52.434;13.238;2023-04-04T13:59:48;102252.66;;;6.81;43.86
32330;BME280;18807;52.434;13.238;2023-04-04T14:07:23;102235.59;;;6.92;43.88
32330;BME280;18807;52.434;13.238;2023-04-04T14:14:57;102248.78;;;6.91;42.45
32330;BME280;18807;52.434;13.238;2023-04-04T14:22:34;102237.97;;;7.04;42.21
32330;BME280;18807;52.434;13.238;2023-04-04T14:30:12;102233.25;;;7.32;42.20
32330;BME280;18807;52.434;13.238;2023-04-04T14:37:47;102228.31;;;7.39;42.24
32330;BME280;18807;52.434;13.238;2023-04-04T14:45:21;102219.47;;;7.23;43.02
32330;BME280;18807;52.434;13.238;2023-04-04T14:52:57;102224.41;;;7.15;42.76
32330;BME280;18807;52.434;13.238;2023-04-04T15:00:31;102212.97;;;7.00;42.02
32330;BME280;18807;52.434;13.238;2023-04-04T15:08:07;102213.25;;;6.89;42.31
32330;BME280;18807;52.434;13.238;2023-04-04T15:15:41;102206.41;;;6.76;43.12
32330;BME280;18807;52.434;13.238;2023-04-04T15:23:16;102209.63;;;6.87;43.52
32330;BME280;18807;52.434;13.238;2023-04-04T15:30:50;102194.16;;;6.96;42.14
32330;BME280;18807;52.434;13.238;2023-04-04T15:38:25;102192.25;;;7.27;41.11
32330;BME280;18807;52.434;13.238;2023-04-04T15:45:59;102180.00;;;7.30;39.77
32330;BME280;18807;52.434;13.238;2023-04-04T15:53:34;102182.66;;;7.48;40.32
32330;BME280;18807;52.434;13.238;2023-04-04T16:01:08;102175.63;;;7.31;41.56
32330;BME280;18807;52.434;13.238;2023-04-04T16:08:45;102176.25;;;7.09;41.57
32330;BME280;18807;52.434;13.238;2023-04-04T16:16:18;102168.03;;;7.05;42.93
32330;BME280;18807;52.434;13.238;2023-04-04T16:23:54;102165.53;;;6.90;43.81
32330;BME280;18807;52.434;13.238;2023-04-04T16:31:28;102172.69;;;6.75;44.64
32330;BME280;18807;52.434;13.238;2023-04-04T16:39:03;102164.38;;;6.69;45.04
32330;BME280;18807;52.434;13.238;2023-04-04T16:46:37;102148.56;;;6.55;45.47
32330;BME280;18807;52.434;13.238;2023-04-04T16:54:13;102153.38;;;6.46;45.65
32330;BME280;18807;52.434;13.238;2023-04-04T17:01:47;102139.53;;;6.35;46.85
32330;BME280;18807;52.434;13.238;2023-04-04T17:09:23;102147.41;;;6.34;47.35
32330;BME280;18807;52.434;13.238;2023-04-04T17:16:56;102149.75;;;6.28;47.63
32330;BME280;18807;52.434;13.238;2023-04-04T17:24:33;102143.38;;;6.24;48.26
32330;BME280;18807;52.434;13.238;2023-04-04T17:32:07;102135.16;;;6.20;48.86
32330;BME280;18807;52.434;13.238;2023-04-04T17:39:42;102135.00;;;6.17;49.33
32330;BME280;18807;52.434;13.238;2023-04-04T17:47:17;102135.59;;;6.11;49.89
32330;BME280;18807;52.434;13.238;2023-04-04T17:54:52;102134.34;;;6.04;50.37
32330;BME280;18807;52.434;13.238;2023-04-04T18:02:26;102123.47;;;6.00;51.38
32330;BME280;18807;52.434;13.238;2023-04-04T18:10:01;102135.63;;;5.96;53.01
32330;BME280;18807;52.434;13.238;2023-04-04T18:17:35;102144.84;;;5.87;54.05
32330;BME280;18807;52.434;13.238;2023-04-04T18:25:11;102141.72;;;5.79;54.86
32330;BME280;18807;52.434;13.238;2023-04-04T18:32:45;102140.38;;;5.71;55.43
32330;BME280;18807;52.434;13.238;2023-04-04T18:40:21;102135.72;;;5.67;56.94
32330;BME280;18807;52.434;13.238;2023-04-04T18:48:12;102146.06;;;5.63;57.60
32330;BME280;18807;52.434;13.238;2023-04-04T18:55:47;102151.09;;;5.58;59.43
32330;BME280;18807;52.434;13.238;2023-04-04T19:03:22;102160.53;;;5.53;61.64
32330;BME280;18807;52.434;13.238;2023-04-04T19:10:58;102154.91;;;5.47;62.45
32330;BME280;18807;52.434;13.238;2023-04-04T19:18:32;102157.19;;;5.41;62.59
32330;BME280;18807;52.434;13.238;2023-04-04T19:26:07;102143.41;;;5.32;63.52
32330;BME280;18807;52.434;13.238;2023-04-04T19:33:41;102148.91;;;5.21;63.26
32330;BME280;18807;52.434;13.238;2023-04-04T19:41:31;102143.09;;;5.12;64.19
32330;BME280;18807;52.434;13.238;2023-04-04T19:49:24;102143.44;;;5.03;66.06
32330;BME280;18807;52.434;13.238;2023-04-04T19:57:05;102134.94;;;4.94;67.29
32330;BME280;18807;52.434;13.238;2023-04-04T20:04:39;102144.09;;;4.85;66.87
32330;BME280;18807;52.434;13.238;2023-04-04T20:12:15;102136.53;;;4.76;68.25
32330;BME280;18807;52.434;13.238;2023-04-04T20:19:51;102129.66;;;4.65;69.03
32330;BME280;18807;52.434;13.238;2023-04-04T20:27:26;102130.75;;;4.54;70.15
32330;BME280;18807;52.434;13.238;2023-04-04T20:35:00;102135.13;;;4.39;70.90
32330;BME280;18807;52.434;13.238;2023-04-04T20:42:39;102133.72;;;4.17;72.45
32330;BME280;18807;52.434;13.238;2023-04-04T20:50:41;102142.38;;;4.01;72.73
32330;BME280;18807;52.434;13.238;2023-04-04T20:58:27;102141.13;;;3.81;73.46
32330;BME280;18807;52.434;13.238;2023-04-04T21:06:09;102139.25;;;3.66;73.19
32330;BME280;18807;52.434;13.238;2023-04-04T21:13:44;102130.84;;;3.58;72.34
32330;BME280;18807;52.434;13.238;2023-04-04T21:21:19;102138.25;;;3.51;73.49
32330;BME280;18807;52.434;13.238;2023-04-04T21:28:55;102130.38;;;3.38;74.00
32330;BME280;18807;52.434;13.238;2023-04-04T21:36:29;102127.84;;;3.26;75.03
32330;BME280;18807;52.434;13.238;2023-04-04T21:44:05;102121.34;;;3.08;74.80
32330;BME280;18807;52.434;13.238;2023-04-04T21:51:40;102123.69;;;2.91;75.44
32330;BME280;18807;52.434;13.238;2023-04-04T21:59:15;102121.19;;;2.68;76.24
32330;BME280;18807;52.434;13.238;2023-04-04T22:06:49;102124.13;;;2.59;76.35
32330;BME280;18807;52.434;13.238;2023-04-04T22:14:25;102120.44;;;2.44;76.82
32330;BME280;18807;52.434;13.238;2023-04-04T22:21:58;102115.03;;;2.30;76.70
32330;BME280;18807;52.434;13.238;2023-04-04T22:29:34;102116.59;;;2.15;77.81
32330;BME280;18807;52.434;13.238;2023-04-04T22:37:08;102115.75;;;2.02;78.56
32330;BME280;18807;52.434;13.238;2023-04-04T22:44:43;102114.59;;;1.99;77.60
32330;BME280;18807;52.434;13.238;2023-04-04T22:52:19;102109.94;;;1.95;77.42
32330;BME280;18807;52.434;13.238;2023-04-04T22:59:55;102103.91;;;1.84;77.83
32330;BME280;18807;52.434;13.238;2023-04-04T23:07:29;102108.06;;;1.81;78.43
32330;BME280;18807;52.434;13.238;2023-04-04T23:15:06;102099.34;;;1.82;78.84
32330;BME280;18807;52.434;13.238;2023-04-04T23:22:41;102100.06;;;1.79;79.85
32330;BME280;18807;52.434;13.238;2023-04-04T23:30:16;102091.84;;;1.75;79.85
32330;BME280;18807;52.434;13.238;2023-04-04T23:37:50;102086.91;;;1.68;79.27
32330;BME280;18807;52.434;13.238;2023-04-04T23:45:26;102083.84;;;1.62;79.04
32330;BME280;18807;52.434;13.238;2023-04-04T23:53:01;102069.34;;;1.55;79.08
